Time;durP1;ratioP1;P1;durP2;ratioP2;P2;SDS_P1;SDS_P2;PMS_P1;PMS_P2;Temp;Humidity;BMP_temperature;BMP_pressure;BME280_temperature;BME280_humidity;BME280_pressure;Samples;Min_cycle;Max_cycle;Signal;HPM_P1;HPM_P2
2023/08/22 13:44:32;;;;;;;6.80;2.40;;;;;;;33.84;31.29;99419.36;107717;1281;93906;-70
2023/08/22 13:46:57;;;;;;;;;;;;;;;33.72;31.79;99423.92;108253;1304;23299;-67
2023/08/22 13:49:23;;;;;;;3.90;2.00;;;;;;;33.32;32.72;99420.88;108282;1304;22365;-72
2023/08/22 13:51:48;;;;;;;4.00;1.90;;;;;;;33.05;33.94;99418.67;108250;1304;23034;-71
2023/08/22 13:54:13;;;;;;;6.90;1.90;;;;;;;32.92;33.53;99416.73;108238;1304;22482;-67
2023/08/22 13:56:39;;;;;;;7.20;2.10;;;;;;;32.78;34.56;99411.85;108252;1304;24206;-68
2023/08/22 13:59:04;;;;;;;2.70;1.90;;;;;;;32.59;34.29;99407.02;108272;1304;22916;-69
2023/08/22 14:01:29;;;;;;;3.80;1.80;;;;;;;32.34;34.05;99405.21;108250;1304;22975;-67
2023/08/22 14:03:54;;;;;;;3.50;2.00;;;;;;;32.16;33.65;99400.48;108254;1304;23074;-69
2023/08/22 14:06:20;;;;;;;4.20;1.80;;;;;;;32.04;33.74;99398.52;108253;1304;22262;-67
2023/08/22 14:08:47;;;;;;;3.90;2.10;;;;;;;31.80;33.85;99403.76;108247;1304;22279;-66
2023/08/22 14:11:13;;;;;;;;;;;;;;;31.60;34.61;99404.66;108264;1304;23248;-65
2023/08/22 14:13:38;;;;;;;4.10;2.10;;;;;;;31.46;35.22;99401.63;108220;1304;22936;-67
2023/08/22 14:16:03;;;;;;;5.80;2.20;;;;;;;31.37;35.20;99402.38;108239;1304;22302;-65
2023/08/22 14:18:29;;;;;;;3.50;2.00;;;;;;;31.15;35.42;99399.70;108268;1304;22350;-64
2023/08/22 14:20:54;;;;;;;2.80;2.30;;;;;;;30.97;35.98;99397.65;108274;1304;22195;-64
2023/08/22 14:23:20;;;;;;;3.10;2.20;;;;;;;31.01;35.91;99391.20;108255;1304;22274;-64
2023/08/22 14:25:46;;;;;;;2.90;2.00;;;;;;;31.05;37.14;99387.08;108255;1304;22268;-65
2023/08/22 14:28:11;;;;;;;6.10;2.20;;;;;;;31.17;36.96;99388.70;108246;1304;22238;-65
2023/08/22 14:30:36;;;;;;;4.60;2.00;;;;;;;31.17;36.56;99386.85;108247;1304;23068;-66
2023/08/22 14:33:02;;;;;;;3.10;2.30;;;;;;;31.11;36.29;99384.76;108254;1304;22241;-63
2023/08/22 14:35:27;;;;;;;4.40;1.80;;;;;;;31.05;35.84;99380.83;108239;1301;22249;-65
2023/08/22 14:37:53;;;;;;;4.30;1.80;;;;;;;30.92;37.37;99373.34;108245;1304;22269;-63
2023/08/22 14:40:18;;;;;;;7.30;2.50;;;;;;;30.79;36.46;99370.49;108256;1300;22381;-62
2023/08/22 14:42:44;;;;;;;3.50;2.20;;;;;;;30.64;37.02;99367.45;108264;1304;22245;-63
2023/08/22 14:45:09;;;;;;;3.00;2.00;;;;;;;30.57;36.90;99365.77;108234;1304;23164;-62
2023/08/22 14:47:35;;;;;;;6.00;2.00;;;;;;;30.41;37.37;99363.35;108247;1304;22348;-62
2023/08/22 14:50:00;;;;;;;3.10;2.00;;;;;;;30.24;37.83;99364.10;108259;1304;22248;-64
2023/08/22 14:52:26;;;;;;;4.50;2.00;;;;;;;30.13;38.12;99364.86;108262;1304;23060;-65
2023/08/22 14:54:51;;;;;;;4.40;2.10;;;;;;;29.98;39.84;99359.30;108233;1304;22230;-63
2023/08/22 14:57:16;;;;;;;6.10;2.60;;;;;;;29.82;39.91;99349.59;108253;1304;22990;-64
2023/08/22 14:59:42;;;;;;;3.30;2.20;;;;;;;29.70;41.54;99347.26;108244;1304;23132;-64
2023/08/22 15:02:07;;;;;;;4.10;2.00;;;;;;;29.59;41.24;99340.61;108226;1304;22330;-62
2023/08/22 15:04:32;;;;;;;5.00;2.40;;;;;;;29.51;40.35;99336.23;108252;1304;22250;-65
2023/08/22 15:06:58;;;;;;;4.90;2.30;;;;;;;29.45;40.15;99337.35;108243;1304;23003;-64
2023/08/22 15:09:23;;;;;;;2.80;2.20;;;;;;;29.40;40.16;99341.65;108248;1304;23173;-65
2023/08/22 15:11:49;;;;;;;5.70;2.30;;;;;;;29.26;40.59;99343.20;108249;1304;22082;-65
2023/08/22 15:14:14;;;;;;;3.20;2.10;;;;;;;29.18;41.03;99349.34;108253;1304;22235;-63
2023/08/22 15:16:39;;;;;;;3.80;2.50;;;;;;;29.19;41.41;99342.89;108240;1304;22317;-63
2023/08/22 15:19:07;;;;;;;4.00;2.40;;;;;;;29.20;41.96;99336.61;108256;1304;22247;-65
2023/08/22 15:21:32;;;;;;;6.70;2.80;;;;;;;29.16;42.79;99328.64;107864;1304;22593;-62
2023/08/22 15:23:58;;;;;;;13.70;2.40;;;;;;;29.18;42.90;99324.77;107129;1304;23025;-64
2023/08/22 15:26:23;;;;;;;8.00;2.70;;;;;;;29.26;43.58;99320.64;107128;1304;22573;-61
2023/08/22 15:28:49;;;;;;;6.00;2.50;;;;;;;29.28;42.36;99312.70;107132;1304;22576;-64
2023/08/22 15:31:14;;;;;;;4.00;2.00;;;;;;;29.16;43.27;99312.67;107208;1304;22354;-63
2023/08/22 15:33:39;;;;;;;5.70;2.10;;;;;;;29.05;43.60;99315.20;108256;1304;22496;-60
2023/08/22 15:36:05;;;;;;;4.70;2.10;;;;;;;28.93;43.23;99314.42;108253;1304;22266;-65
2023/08/22 15:38:32;;;;;;;4.80;2.30;;;;;;;28.83;44.31;99317.81;108258;1304;22865;-62
2023/08/22 15:40:57;;;;;;;5.90;2.20;;;;;;;28.73;45.20;99318.44;108253;1304;22249;-63
2023/08/22 15:43:23;;;;;;;3.60;2.00;;;;;;;28.63;44.83;99311.23;108257;1304;23134;-66
2023/08/22 15:45:49;;;;;;;3.40;2.30;;;;;;;28.55;44.89;99307.36;108265;1304;22226;-61
2023/08/22 15:48:15;;;;;;;5.20;2.40;;;;;;;28.47;44.84;99308.09;108257;1304;23008;-65
2023/08/22 15:50:41;;;;;;;4.30;2.20;;;;;;;28.37;45.64;99306.95;108257;1304;22227;-63
2023/08/22 15:53:07;;;;;;;8.00;2.20;;;;;;;28.30;45.70;99303.14;108253;1304;22287;-61
2023/08/22 15:55:32;;;;;;;2.70;2.20;;;;;;;28.29;45.76;99302.30;108260;1304;22668;-63
2023/08/22 15:57:59;;;;;;;5.90;2.30;;;;;;;28.23;46.04;99291.13;108253;1304;22747;-62
2023/08/22 16:00:24;;;;;;;6.80;3.10;;;;;;;28.19;45.75;99286.94;108257;1304;23244;-65
2023/08/22 16:02:49;;;;;;;4.70;2.20;;;;;;;28.09;46.01;99281.22;108253;1304;22239;-62
2023/08/22 16:05:15;;;;;;;8.20;2.30;;;;;;;28.04;46.65;99275.24;108112;1304;167282;-64
2023/08/22 16:07:43;;;;;;;5.90;2.50;;;;;;;28.01;46.20;99266.29;108241;1304;24481;-61
2023/08/22 16:10:09;;;;;;;6.30;2.30;;;;;;;27.95;46.18;99262.63;108245;1303;23051;-63
2023/08/22 16:12:35;;;;;;;5.10;2.20;;;;;;;27.92;46.35;99263.98;108252;1304;22240;-64
2023/08/22 16:15:00;;;;;;;10.40;2.40;;;;;;;27.86;46.88;99265.48;108251;1304;23286;-64
2023/08/22 16:17:25;;;;;;;7.30;2.30;;;;;;;27.81;47.11;99262.00;108234;1304;22642;-63
2023/08/22 16:19:51;;;;;;;7.30;2.50;;;;;;;27.75;46.84;99251.41;108226;1304;22704;-65
2023/08/22 16:22:16;;;;;;;6.50;2.60;;;;;;;27.67;47.40;99248.95;108252;1304;22255;-65
2023/08/22 16:24:41;;;;;;;3.90;2.40;;;;;;;27.63;47.68;99252.44;108210;1304;22440;-64
2023/08/22 16:27:07;;;;;;;8.10;2.50;;;;;;;27.59;47.83;99252.87;108231;1304;23128;-62
2023/08/22 16:29:32;;;;;;;3.20;1.90;;;;;;;27.53;48.09;99247.27;108232;1304;22481;-62
2023/08/22 16:31:58;;;;;;;5.20;2.20;;;;;;;27.48;47.75;99244.02;108255;1304;22272;-64
2023/08/22 16:34:24;;;;;;;4.80;2.30;;;;;;;27.41;48.23;99238.40;108233;1304;23063;-63
2023/08/22 16:36:50;;;;;;;7.10;2.20;;;;;;;27.34;47.94;99234.23;108217;1304;23010;-64
2023/08/22 16:39:17;;;;;;;4.00;2.20;;;;;;;27.28;48.70;99237.57;108257;1304;22247;-64
2023/08/22 16:41:43;;;;;;;4.70;2.10;;;;;;;27.24;48.60;99235.52;107173;1304;22570;-61
2023/08/22 16:44:08;;;;;;;6.90;2.40;;;;;;;27.18;48.11;99238.13;107113;1304;22649;-64
2023/08/22 16:46:34;;;;;;;8.40;2.40;;;;;;;27.11;48.36;99238.89;107125;1304;22563;-61
2023/08/22 16:48:59;;;;;;;6.50;3.10;;;;;;;27.02;48.99;99230.37;107131;1288;22569;-63
2023/08/22 16:51:29;;;;;;;5.10;2.30;;;;;;;26.95;50.36;99233.88;107122;1304;22587;-64
2023/08/22 16:53:55;;;;;;;6.10;2.50;;;;;;;26.88;50.13;99244.55;107141;1304;22743;-64
2023/08/22 16:56:21;;;;;;;5.60;2.30;;;;;;;26.77;50.73;99246.89;108235;1304;22233;-62
2023/08/22 16:58:47;;;;;;;4.70;2.80;;;;;;;26.71;50.29;99250.56;108240;1304;23219;-63
2023/08/22 17:01:12;;;;;;;7.50;2.80;;;;;;;26.66;50.68;99251.88;108229;1304;22246;-63
2023/08/22 17:03:38;;;;;;;7.20;2.60;;;;;;;26.64;50.32;99252.34;108232;1304;22485;-64
2023/08/22 17:06:04;;;;;;;5.50;2.50;;;;;;;26.61;51.00;99255.54;108239;1304;22649;-63
2023/08/22 17:08:30;;;;;;;3.70;2.30;;;;;;;26.59;50.90;99256.81;108246;1304;22291;-62
2023/08/22 17:11:03;;;;;;;6.50;2.50;;;;;;;26.56;51.59;99261.39;108226;1304;22252;-64
2023/08/22 17:13:28;;;;;;;5.60;2.30;;;;;;;26.53;51.60;99268.61;108242;1304;22244;-64
2023/08/22 17:15:59;;;;;;;4.50;2.90;;;;;;;26.52;51.43;99268.93;108222;1304;22345;-64
2023/08/22 17:18:25;;;;;;;6.10;2.60;;;;;;;26.48;51.79;99262.95;108196;1304;22349;-61
2023/08/22 17:20:51;;;;;;;9.60;2.50;;;;;;;26.44;52.09;99268.55;108219;1304;22256;-64
2023/08/22 17:23:16;;;;;;;5.90;2.40;;;;;;;26.41;51.82;99267.06;108234;1304;22272;-61
2023/08/22 17:25:41;;;;;;;7.20;2.60;;;;;;;26.37;51.90;99259.16;108238;1304;23154;-63
2023/08/22 17:28:07;;;;;;;4.80;2.50;;;;;;;26.35;52.39;99250.77;108222;1304;22263;-63
2023/08/22 17:30:32;;;;;;;5.90;2.70;;;;;;;26.33;52.16;99250.48;108204;1304;22248;-62
2023/08/22 17:32:58;;;;;;;7.90;2.50;;;;;;;26.27;52.11;99248.67;108234;1304;22319;-63
2023/08/22 17:35:23;;;;;;;4.90;2.50;;;;;;;26.22;52.70;99241.98;108208;1304;22385;-62
2023/08/22 17:37:49;;;;;;;4.90;2.80;;;;;;;26.18;53.24;99238.07;108209;1304;22936;-65
2023/08/22 17:40:14;;;;;;;8.50;2.50;;;;;;;26.15;53.45;99240.09;108200;1304;22969;-61
2023/08/22 17:42:39;;;;;;;6.10;2.80;;;;;;;26.10;53.14;99242.18;107608;1304;22673;-64
2023/08/22 17:45:06;;;;;;;5.00;2.80;;;;;;;26.03;53.77;99238.47;107135;1304;22550;-63
2023/08/22 17:47:31;;;;;;;9.10;2.70;;;;;;;25.98;53.85;99239.83;108225;1304;22307;-61
2023/08/22 17:49:57;;;;;;;13.80;3.10;;;;;;;25.93;53.70;99238.03;108215;1304;22253;-63
2023/08/22 17:52:24;;;;;;;4.90;2.50;;;;;;;25.87;54.46;99246.38;108225;1304;22289;-62
2023/08/22 17:54:49;;;;;;;;;;;;;;;25.82;57.23;99250.67;108255;1304;22486;-64
2023/08/22 17:57:15;;;;;;;5.30;2.60;;;;;;;25.79;58.05;99257.41;108212;1304;22307;-61
2023/08/22 17:59:40;;;;;;;5.10;2.70;;;;;;;25.72;57.24;99261.05;108202;1304;22247;-60
2023/08/22 18:02:06;;;;;;;4.00;2.70;;;;;;;25.66;59.75;99268.08;108215;1304;22233;-60
2023/08/22 18:04:32;;;;;;;5.00;2.60;;;;;;;25.58;60.20;99277.91;108237;1304;22355;-62
2023/08/22 18:06:57;;;;;;;6.10;3.10;;;;;;;25.48;62.21;99285.27;108198;1304;22632;-59
2023/08/22 18:09:23;;;;;;;6.40;3.30;;;;;;;25.38;65.05;99292.92;107113;1304;22627;-66
2023/08/22 18:11:48;;;;;;;6.10;3.10;;;;;;;25.28;67.28;99298.67;107068;1304;22554;-60
2023/08/22 18:14:14;;;;;;;6.50;3.60;;;;;;;25.17;68.15;99302.80;108222;1304;22424;-62
2023/08/22 18:16:39;;;;;;;6.80;3.20;;;;;;;25.02;69.05;99304.03;108183;1304;22355;-61
2023/08/22 18:19:04;;;;;;;7.20;4.10;;;;;;;24.87;70.69;99301.06;108185;1304;22275;-63
2023/08/22 18:21:30;;;;;;;7.20;3.50;;;;;;;24.74;71.14;99296.87;108196;1304;22249;-62
2023/08/22 18:23:55;;;;;;;7.20;3.90;;;;;;;24.63;71.62;99285.23;108185;1304;22258;-59
2023/08/22 18:26:21;;;;;;;8.00;3.60;;;;;;;24.54;71.57;99281.75;108162;1304;22400;-63
2023/08/22 18:28:46;;;;;;;9.00;3.60;;;;;;;24.46;73.89;99283.15;108179;1304;22240;-62
2023/08/22 18:31:17;;;;;;;11.00;4.00;;;;;;;24.36;73.78;99291.30;108179;1304;23453;-60
2023/08/22 18:33:43;;;;;;;7.20;3.90;;;;;;;24.27;75.83;99288.95;108235;1304;22220;-64
2023/08/22 18:36:16;;;;;;;12.10;3.50;;;;;;;24.17;76.96;99284.68;108234;1304;22244;-61
2023/08/22 18:38:43;;;;;;;6.30;3.60;;;;;;;24.07;76.33;99278.67;108218;1304;22268;-63
2023/08/22 18:41:08;;;;;;;9.40;3.70;;;;;;;23.98;76.62;99268.35;108209;1304;22406;-62
2023/08/22 18:43:34;;;;;;;10.10;4.10;;;;;;;23.92;76.81;99261.25;107876;1304;22769;-61
2023/08/22 18:45:59;;;;;;;7.80;3.90;;;;;;;23.90;78.16;99252.79;108200;1304;22282;-60
2023/08/22 18:48:24;;;;;;;6.50;3.70;;;;;;;23.84;78.79;99244.98;108168;1304;22251;-63
2023/08/22 18:51:00;;;;;;;8.40;3.60;;;;;;;23.80;79.01;99250.30;108188;1304;22474;-61
2023/08/22 18:53:28;;;;;;;8.30;4.00;;;;;;;23.76;80.93;99249.80;108224;1304;23118;-61
2023/08/22 18:55:55;;;;;;;6.80;3.90;;;;;;;23.69;80.39;99258.58;108219;1304;22393;-61
2023/08/22 18:58:21;;;;;;;7.00;4.10;;;;;;;23.64;81.23;99255.02;108212;1304;23143;-60
2023/08/22 19:00:47;;;;;;;8.10;3.60;;;;;;;23.61;80.71;99251.27;108213;1304;23017;-62
2023/08/22 19:03:12;;;;;;;5.30;4.00;;;;;;;23.57;79.47;99253.16;108206;1304;22284;-64
2023/08/22 19:05:38;;;;;;;13.40;4.80;;;;;;;23.54;79.51;99258.16;108170;1304;23079;-64
2023/08/22 19:08:04;;;;;;;5.20;3.80;;;;;;;23.54;81.63;99266.91;108163;1304;22275;-60
2023/08/22 19:10:29;;;;;;;6.00;3.90;;;;;;;23.53;81.46;99278.82;108174;1304;22312;-62
2023/08/22 19:12:54;;;;;;;6.40;4.10;;;;;;;23.51;83.22;99278.29;108192;1304;22274;-60
2023/08/22 19:15:20;;;;;;;11.10;4.30;;;;;;;23.48;81.98;99275.44;108175;1304;22260;-62
2023/08/22 19:17:45;;;;;;;7.60;4.80;;;;;;;23.45;82.35;99268.66;108184;1304;23720;-62
2023/08/22 19:20:11;;;;;;;6.10;3.90;;;;;;;23.43;81.23;99267.95;108176;1304;23053;-61
2023/08/22 19:22:39;;;;;;;6.60;4.40;;;;;;;23.43;81.08;99262.42;108188;1304;22527;-61
2023/08/22 19:25:06;;;;;;;9.30;4.40;;;;;;;23.43;83.33;99265.27;108190;1304;23033;-61
2023/08/22 19:27:33;;;;;;;9.30;4.70;;;;;;;23.40;83.12;99273.05;108203;1304;22260;-60
2023/08/22 19:29:59;;;;;;;10.00;4.50;;;;;;;23.38;82.72;99280.40;108206;1304;22324;-59
2023/08/22 19:32:24;;;;;;;10.30;4.70;;;;;;;23.38;83.60;99282.95;108192;1304;22248;-61
2023/08/22 19:34:49;;;;;;;7.90;4.50;;;;;;;23.37;86.43;99280.03;108209;1304;22243;-63
2023/08/22 19:37:15;;;;;;;7.60;4.60;;;;;;;23.34;84.76;99285.00;108170;1304;22529;-61
2023/08/22 19:39:40;;;;;;;8.90;4.90;;;;;;;23.33;85.23;99284.60;108168;1304;22999;-63
2023/08/22 19:42:06;;;;;;;8.00;4.80;;;;;;;23.34;85.03;99280.84;108188;1304;22255;-60
2023/08/22 19:44:31;;;;;;;7.00;4.50;;;;;;;23.31;81.62;99290.47;108166;1304;22235;-60
2023/08/22 19:46:56;;;;;;;9.90;4.80;;;;;;;23.28;82.50;99301.42;108178;1304;22553;-65
2023/08/22 19:49:22;;;;;;;6.70;4.60;;;;;;;23.25;83.50;99313.50;108173;1304;22238;-59
2023/08/22 19:51:47;;;;;;;7.90;4.90;;;;;;;23.10;83.39;99317.42;108174;1304;22536;-62
2023/08/22 19:54:14;;;;;;;10.40;4.80;;;;;;;22.99;82.97;99326.16;108174;1304;22235;-63
2023/08/22 19:56:39;;;;;;;8.00;4.40;;;;;;;22.87;83.93;99330.58;108214;1304;22251;-60
2023/08/22 19:59:05;;;;;;;8.50;3.90;;;;;;;22.70;83.11;99324.36;108203;1304;22582;-65
2023/08/22 20:01:30;;;;;;;12.20;4.80;;;;;;;22.52;82.77;99327.81;108190;1304;22279;-61
2023/08/22 20:03:55;;;;;;;7.80;3.40;;;;;;;22.38;82.44;99323.73;108179;1304;22271;-61
2023/08/22 20:06:21;;;;;;;7.70;3.50;;;;;;;22.30;81.42;99310.73;108185;1304;22448;-61
2023/08/22 20:08:46;;;;;;;6.70;3.20;;;;;;;22.20;80.58;99308.98;108173;1304;22363;-60
2023/08/22 20:11:11;;;;;;;6.90;3.40;;;;;;;22.09;79.13;99308.31;108180;1304;22140;-60
2023/08/22 20:13:37;;;;;;;5.20;2.80;;;;;;;21.98;78.57;99315.36;108175;1304;22235;-61
2023/08/22 20:16:02;;;;;;;5.60;3.10;;;;;;;21.90;78.56;99324.23;108211;1304;22444;-64
2023/08/22 20:18:27;;;;;;;6.60;3.30;;;;;;;21.85;78.20;99327.92;108178;1304;22248;-60
2023/08/22 20:20:54;;;;;;;5.30;2.70;;;;;;;21.86;78.00;99340.73;108173;1304;22383;-61
2023/08/22 20:23:20;;;;;;;7.30;3.10;;;;;;;21.82;76.92;99351.91;108191;1304;22152;-64
2023/08/22 20:25:45;;;;;;;5.20;2.80;;;;;;;21.81;77.03;99344.88;108177;1304;22262;-64
2023/08/22 20:28:10;;;;;;;6.70;3.20;;;;;;;21.78;75.80;99327.32;108189;1304;22259;-62
2023/08/22 20:30:36;;;;;;;4.40;2.60;;;;;;;21.75;76.13;99323.55;108191;1304;22213;-61
2023/08/22 20:33:02;;;;;;;6.80;3.70;;;;;;;21.74;75.72;99322.23;108197;1304;22252;-59
2023/08/22 20:35:27;;;;;;;7.20;3.10;;;;;;;21.71;76.38;99303.70;108198;1304;22247;-63
2023/08/22 20:37:52;;;;;;;6.50;3.20;;;;;;;21.68;76.35;99293.61;108175;1304;23179;-63
2023/08/22 20:40:18;;;;;;;5.00;2.90;;;;;;;21.68;76.22;99291.64;108202;1304;22246;-61
2023/08/22 20:42:45;;;;;;;5.20;3.00;;;;;;;21.66;76.89;99291.46;108206;1304;22449;-64
2023/08/22 20:45:11;;;;;;;3.20;2.70;;;;;;;21.66;77.10;99304.30;108194;1304;22237;-64
2023/08/22 20:47:37;;;;;;;6.60;2.90;;;;;;;21.66;77.19;99313.10;108166;1304;22241;-62
2023/08/22 20:50:02;;;;;;;6.70;2.90;;;;;;;21.63;76.73;99309.10;108210;1304;23153;-62
2023/08/22 20:52:28;;;;;;;8.70;3.00;;;;;;;21.60;76.03;99312.05;108182;1304;22266;-62
2023/08/22 20:54:53;;;;;;;6.00;2.50;;;;;;;21.57;76.39;99313.13;108168;1304;23037;-64
2023/08/22 20:57:18;;;;;;;4.20;2.60;;;;;;;21.56;75.70;99318.01;108194;1304;22395;-62
2023/08/22 20:59:44;;;;;;;6.10;2.40;;;;;;;21.53;74.85;99312.09;108182;1304;22802;-62
2023/08/22 21:02:14;;;;;;;7.40;3.30;;;;;;;21.50;75.78;99315.24;108158;1304;23378;-61
2023/08/22 21:04:40;;;;;;;6.00;3.00;;;;;;;21.51;75.71;99313.36;108200;1304;22284;-62
2023/08/22 21:07:06;;;;;;;3.70;2.70;;;;;;;21.49;74.86;99311.57;108196;1304;22247;-62
2023/08/22 21:09:32;;;;;;;2.90;2.30;;;;;;;21.48;75.17;99314.35;108197;1304;22899;-64
2023/08/22 21:11:58;;;;;;;4.00;2.50;;;;;;;21.44;74.65;99320.03;108191;1304;22483;-60
2023/08/22 21:14:23;;;;;;;6.80;2.60;;;;;;;21.42;74.39;99318.60;108198;1304;22478;-60
2023/08/22 21:16:49;;;;;;;4.60;2.60;;;;;;;21.42;74.04;99317.80;108177;1304;22267;-64
2023/08/22 21:19:15;;;;;;;4.70;2.70;;;;;;;21.34;74.06;99315.52;108196;1304;22260;-64
2023/08/22 21:21:40;;;;;;;7.30;3.40;;;;;;;21.30;74.58;99323.27;108004;1304;22269;-60
2023/08/22 21:24:05;;;;;;;6.90;3.10;;;;;;;21.27;74.81;99327.15;108181;1304;22295;-60
2023/08/22 21:26:31;;;;;;;6.20;2.90;;;;;;;21.24;75.11;99320.44;108176;1304;23138;-61
2023/08/22 21:28:56;;;;;;;7.50;2.70;;;;;;;21.21;74.88;99320.08;108180;1304;22247;-64
2023/08/22 21:31:21;;;;;;;5.40;2.90;;;;;;;21.13;74.42;99321.34;108170;1304;22417;-61
2023/08/22 21:33:47;;;;;;;5.00;2.60;;;;;;;21.05;75.27;99320.13;108168;1304;22282;-64
2023/08/22 21:36:13;;;;;;;7.40;3.00;;;;;;;21.00;75.47;99320.00;108168;1304;22323;-62
2023/08/22 21:38:38;;;;;;;7.50;3.10;;;;;;;20.92;75.19;99317.21;108170;1304;22359;-63
2023/08/22 21:41:04;;;;;;;8.70;3.30;;;;;;;20.87;75.85;99318.89;108159;1304;22307;-63
2023/08/22 21:43:29;;;;;;;5.80;2.80;;;;;;;20.86;76.58;99320.11;108161;1304;22494;-59
2023/08/22 21:47:51;;;;;;;4.10;3.00;;;;;;;20.84;76.22;99325.13;106850;1305;544733;-41
2023/08/22 21:50:16;;;;;;;5.80;2.90;;;;;;;20.79;75.81;99323.95;107370;1313;22422;-41
2023/08/22 21:52:41;;;;;;;4.90;3.10;;;;;;;20.73;75.37;99330.66;107396;1313;23295;-41
2023/08/22 21:55:07;;;;;;;7.90;3.10;;;;;;;20.64;76.19;99329.88;107382;1313;22437;-38
2023/08/22 21:57:32;;;;;;;13.10;3.30;;;;;;;20.58;76.60;99323.67;107411;1313;22230;-39
2023/08/22 21:59:58;;;;;;;6.30;3.00;;;;;;;20.51;76.83;99321.64;107395;1313;22295;-40
2023/08/22 22:02:23;;;;;;;5.50;3.00;;;;;;;20.43;76.64;99322.30;107509;1310;159809;-40
2023/08/22 22:04:48;;;;;;;6.00;3.20;;;;;;;20.34;77.52;99319.76;107669;1310;22226;-42
2023/08/22 22:07:13;;;;;;;8.00;3.10;;;;;;;20.29;76.97;99309.66;107647;1310;22248;-39
2023/08/22 22:09:39;;;;;;;6.30;3.10;;;;;;;20.27;77.62;99311.88;107677;1310;22360;-39
2023/08/22 22:12:05;;;;;;;6.20;3.10;;;;;;;20.27;77.91;99316.68;107882;1285;22407;-39
2023/08/22 22:14:30;;;;;;;4.40;2.70;;;;;;;20.27;77.96;99319.46;107853;1308;22266;-40
2023/08/22 22:16:55;;;;;;;4.30;3.10;;;;;;;20.25;78.04;99312.91;107855;1308;23167;-41
2023/08/22 22:19:21;;;;;;;6.70;2.90;;;;;;;20.23;77.62;99308.44;107863;1308;22189;-39
2023/08/22 22:21:46;;;;;;;7.70;2.80;;;;;;;20.22;78.15;99307.88;107870;1308;23433;-41
2023/08/22 22:24:11;;;;;;;5.10;2.80;;;;;;;20.22;79.43;99305.59;107897;1308;22882;-39
2023/08/22 22:26:37;;;;;;;8.00;2.90;;;;;;;20.21;79.13;99299.77;107870;1308;22319;-39
2023/08/22 22:29:02;;;;;;;5.60;3.30;;;;;;;20.22;78.86;99299.67;107884;1308;22227;-40
2023/08/22 22:31:27;;;;;;;8.90;3.30;;;;;;;20.20;78.85;99297.91;107883;1308;22429;-40
2023/08/22 22:33:53;;;;;;;7.00;2.90;;;;;;;20.21;78.76;99294.09;107901;1308;23028;-39
2023/08/22 22:36:18;;;;;;;6.00;3.10;;;;;;;20.23;79.16;99297.31;107861;1308;23144;-40
2023/08/22 22:38:44;;;;;;;13.00;3.40;;;;;;;20.24;79.66;99300.36;107888;1308;22285;-41
2023/08/22 22:41:09;;;;;;;4.90;2.70;;;;;;;20.24;79.73;99303.71;107862;1308;22239;-40
2023/08/22 22:43:34;;;;;;;5.40;2.80;;;;;;;20.25;79.83;99302.42;107855;1308;22914;-41
2023/08/22 22:46:00;;;;;;;9.30;3.50;;;;;;;20.24;80.33;99302.86;107864;1308;22250;-40
2023/08/22 22:48:25;;;;;;;8.60;2.80;;;;;;;20.22;80.03;99299.31;107865;1308;22915;-42
2023/08/22 22:50:51;;;;;;;5.40;3.00;;;;;;;20.21;80.85;99296.39;107808;1308;22439;-40
2023/08/22 22:53:16;;;;;;;5.30;3.40;;;;;;;20.22;80.88;99292.52;107828;1308;25286;-41
2023/08/22 22:55:42;;;;;;;7.10;3.10;;;;;;;20.24;80.61;99291.16;107849;1308;23122;-40
2023/08/22 22:58:07;;;;;;;4.30;2.70;;;;;;;20.23;81.79;99289.81;107835;1308;22223;-39
2023/08/22 23:00:33;;;;;;;5.70;3.10;;;;;;;20.24;82.08;99289.35;107833;1308;22229;-41
2023/08/22 23:02:58;;;;;;;6.00;3.30;;;;;;;20.25;81.52;99293.69;107841;1289;22294;-39
2023/08/22 23:05:24;;;;;;;4.50;3.10;;;;;;;20.26;81.52;99290.52;107840;1308;22526;-39
2023/08/22 23:07:50;;;;;;;4.60;3.10;;;;;;;20.28;82.40;99285.17;107841;1308;22445;-39
2023/08/22 23:10:15;;;;;;;6.10;3.20;;;;;;;20.29;82.29;99279.10;107874;1289;22568;-41
2023/08/22 23:12:41;;;;;;;6.60;3.00;;;;;;;20.28;83.01;99284.73;107833;1308;22284;-40
2023/08/22 23:15:07;;;;;;;7.40;3.10;;;;;;;20.28;82.24;99287.35;107843;1308;22344;-41
2023/08/22 23:17:35;;;;;;;5.30;3.30;;;;;;;20.27;82.73;99284.42;107834;1308;22260;-41
2023/08/22 23:20:06;;;;;;;3.20;2.70;;;;;;;20.27;84.16;99285.34;107853;1308;23244;-39
2023/08/22 23:22:32;;;;;;;14.40;3.60;;;;;;;20.25;83.65;99288.20;107828;1308;22254;-39
2023/08/22 23:24:57;;;;;;;5.90;2.90;;;;;;;20.23;82.83;99291.24;107878;1308;22478;-39
2023/08/22 23:27:23;;;;;;;4.30;3.10;;;;;;;20.19;83.78;99291.26;108026;1306;23394;-39
2023/08/22 23:29:48;;;;;;;9.40;3.20;;;;;;;20.18;83.59;99298.52;108028;1306;22260;-42
2023/08/22 23:32:13;;;;;;;4.90;3.10;;;;;;;20.16;83.77;99298.98;107979;1306;22244;-39
2023/08/22 23:34:39;;;;;;;4.10;3.10;;;;;;;20.17;84.77;99306.05;108015;1306;22963;-38
2023/08/22 23:37:04;;;;;;;4.90;3.30;;;;;;;20.17;84.02;99301.00;107853;1306;22583;-42
2023/08/22 23:39:29;;;;;;;8.30;3.40;;;;;;;20.19;85.05;99305.83;106900;1288;23465;-39
2023/08/22 23:41:55;;;;;;;6.60;3.60;;;;;;;20.20;84.87;99307.01;106940;1306;22566;-37
2023/08/22 23:44:20;;;;;;;5.40;3.10;;;;;;;20.19;85.22;99306.70;106896;1306;23045;-39
2023/08/22 23:46:45;;;;;;;7.40;3.70;;;;;;;20.19;86.16;99296.79;106913;1306;22556;-40
2023/08/22 23:49:10;;;;;;;7.80;3.40;;;;;;;20.20;86.99;99294.54;107951;1306;22492;-42
2023/08/22 23:51:36;;;;;;;4.10;3.00;;;;;;;20.21;86.58;99296.00;108039;1306;22437;-40
2023/08/22 23:54:01;;;;;;;3.40;3.00;;;;;;;20.23;86.72;99297.11;108001;1306;23041;-41
2023/08/22 23:56:26;;;;;;;7.80;3.60;;;;;;;20.24;86.47;99293.40;108031;1306;22406;-41
2023/08/22 23:58:51;;;;;;;7.20;3.40;;;;;;;20.26;87.37;99290.61;108009;1306;23666;-39
